Time;durP1;ratioP1;P1;durP2;ratioP2;P2;SDS_P1;SDS_P2;PMS_P1;PMS_P2;Temp;Humidity;BMP_temperature;BMP_pressure;BME280_temperature;BME280_humidity;BME280_pressure;Samples;Min_cycle;Max_cycle;Signal;HPM_P1;HPM_P2
2022/08/12 00:44:37;;;;;;;8.70;3.75;;;;;;;;;;4233448;33;20121;-60
2022/08/12 00:47:03;;;;;;;10.82;3.92;;;;;;;;;;4233407;33;20527;-60
2022/08/12 00:49:30;;;;;;;8.13;3.85;;;;;;;;;;4220403;33;20113;-60
2022/08/12 00:52:10;;;;;;;10.55;3.87;;;;;;;;;;4233531;33;20105;-67
2022/08/12 00:54:49;;;;;;;11.12;4.07;;;;;;;;;;4221610;33;20604;-68
2022/08/12 00:57:21;;;;;;;9.77;3.83;;;;;;;;;;4233727;33;20116;-68
2022/08/12 00:59:49;;;;;;;8.02;4.05;;;;;;;;;;4233174;33;20561;-67
2022/08/12 01:02:22;;;;;;;7.00;3.70;;;;;;;;;;4220081;33;20113;-67
2022/08/12 01:13:12;;;;;;;9.80;4.00;;;;;;;;;;4233188;33;20148;-68
2022/08/12 01:15:38;;;;;;;64.15;11.32;;;;;;;;;;4208880;33;20124;-67
2022/08/12 01:18:05;;;;;;;50.03;11.93;;;;;;;;;;4208494;33;20105;-68
2022/08/12 01:20:39;;;;;;;50.28;9.18;;;;;;;;;;4219664;33;20104;-68
2022/08/12 01:23:24;;;;;;;47.47;10.95;;;;;;;;;;4208679;33;20213;-68
2022/08/12 01:25:52;;;;;;;45.17;10.57;;;;;;;;;;4220141;33;20180;-68
2022/08/12 01:28:19;;;;;;;34.22;10.68;;;;;;;;;;4220275;33;20132;-68
2022/08/12 01:30:48;;;;;;;47.22;11.60;;;;;;;;;;4220165;33;20093;-68
2022/08/12 01:33:16;;;;;;;39.85;11.55;;;;;;;;;;4233265;33;20117;-68
2022/08/12 01:35:47;;;;;;;33.90;10.50;;;;;;;;;;4232855;33;20203;-68
2022/08/12 01:38:18;;;;;;;32.17;10.10;;;;;;;;;;4220381;33;20192;-67
2022/08/12 01:40:46;;;;;;;29.85;8.38;;;;;;;;;;4220015;33;20124;-67
2022/08/12 01:43:15;;;;;;;20.02;7.37;;;;;;;;;;4219936;33;20098;-67
2022/08/12 01:46:04;;;;;;;18.87;6.65;;;;;;;;;;4219817;33;20105;-67
2022/08/12 01:48:33;;;;;;;17.12;6.30;;;;;;;;;;4199412;33;20105;-67
2022/08/12 01:51:38;;;;;;;12.95;5.10;;;;;;;;;;4233162;33;20227;-67
2022/08/12 01:54:06;;;;;;;13.52;5.12;;;;;;;;;;4233055;33;20525;-67
2022/08/12 01:56:58;;;;;;;15.68;5.22;;;;;;;;;;4219562;33;20461;-67
2022/08/12 02:02:10;;;;;;;14.63;6.35;;;;;;;;;;4232924;33;20108;-67
2022/08/12 02:11:29;;;;;;;29.05;10.32;;;;;;;;;;4191872;33;20641;-67
2022/08/12 02:14:20;;;;;;;25.02;9.05;;;;;;;;;;4219775;33;20104;-67
2022/08/12 02:17:07;;;;;;;19.00;7.37;;;;;;;;;;4232732;33;20124;-67
2022/08/12 02:19:45;;;;;;;15.88;6.20;;;;;;;;;;4219721;33;20124;-67
2022/08/12 02:22:36;;;;;;;10.23;5.55;;;;;;;;;;4232739;33;20119;-67
2022/08/12 02:25:05;;;;;;;9.25;4.12;;;;;;;;;;4232475;33;20545;-68
2022/08/12 02:27:38;;;;;;;7.12;3.87;;;;;;;;;;4229698;33;20116;-69
2022/08/12 02:30:07;;;;;;;9.05;3.17;;;;;;;;;;4213161;33;20132;-69
2022/08/12 02:32:37;;;;;;;5.25;3.25;;;;;;;;;;4232971;33;20124;-70
2022/08/12 02:35:09;;;;;;;14.40;4.57;;;;;;;;;;4231640;33;20570;-70
2022/08/12 02:37:38;;;;;;;9.80;4.28;;;;;;;;;;4219889;33;20086;-70
2022/08/12 02:40:06;;;;;;;8.23;3.87;;;;;;;;;;4232791;33;20204;-69
2022/08/12 02:42:33;;;;;;;8.05;3.20;;;;;;;;;;4220169;33;20121;-70
2022/08/12 02:45:03;;;;;;;14.90;7.00;;;;;;;;;;4219316;33;20112;-68
2022/08/12 02:47:32;;;;;;;8.60;5.68;;;;;;;;;;4232510;33;20097;-68
2022/08/12 02:49:59;;;;;;;14.25;4.60;;;;;;;;;;4219484;33;20437;-67
2022/08/12 02:52:25;;;;;;;13.43;3.85;;;;;;;;;;4219445;33;20520;-67
2022/08/12 02:54:56;;;;;;;7.15;3.80;;;;;;;;;;4232477;33;20128;-69
2022/08/12 02:57:22;;;;;;;12.37;3.50;;;;;;;;;;4219400;33;20196;-70
2022/08/12 02:59:49;;;;;;;7.45;4.80;;;;;;;;;;4219201;33;20112;-70
2022/08/12 03:02:19;;;;;;;10.52;4.47;;;;;;;;;;4216768;33;20140;-70
2022/08/12 03:04:55;;;;;;;10.82;4.32;;;;;;;;;;4219089;33;20097;-71
2022/08/12 03:07:25;;;;;;;5.90;3.97;;;;;;;;;;4216934;33;20085;-70
2022/08/12 03:09:54;;;;;;;11.27;3.65;;;;;;;;;;4224416;33;20223;-69
2022/08/12 03:12:20;;;;;;;12.37;3.62;;;;;;;;;;4218270;34;20592;-70
2022/08/12 03:14:48;;;;;;;12.02;3.65;;;;;;;;;;4216731;33;20117;-69
2022/08/12 03:17:30;;;;;;;7.18;2.97;;;;;;;;;;4216673;34;20092;-70
2022/08/12 03:19:58;;;;;;;9.95;3.65;;;;;;;;;;4208792;33;20600;-67
2022/08/12 03:22:25;;;;;;;7.78;2.95;;;;;;;;;;4232087;33;20093;-68
2022/08/12 03:24:51;;;;;;;9.60;3.15;;;;;;;;;;4219049;33;20125;-67
2022/08/12 03:27:18;;;;;;;5.20;2.58;;;;;;;;;;4219068;33;20121;-70
2022/08/12 03:29:46;;;;;;;9.88;3.78;;;;;;;;;;4232082;33;20119;-70
2022/08/12 03:32:13;;;;;;;6.25;3.10;;;;;;;;;;4207570;33;20525;-70
2022/08/12 03:34:40;;;;;;;4.35;3.00;;;;;;;;;;4218768;33;20121;-68
2022/08/12 03:37:07;;;;;;;4.07;3.00;;;;;;;;;;4231891;33;20204;-69
2022/08/12 03:42:34;;;;;;;13.98;3.55;;;;;;;;;;4232208;33;20120;-71
2022/08/12 04:02:03;;;;;;;19.05;6.15;;;;;;;;;;4221374;33;20124;-65
2022/08/12 04:04:33;;;;;;;14.55;5.43;;;;;;;;;;4234236;33;20495;-62
2022/08/12 04:07:08;;;;;;;9.30;4.97;;;;;;;;;;4233833;33;20619;-61
2022/08/12 04:09:37;;;;;;;9.75;4.22;;;;;;;;;;4233931;33;20543;-61
2022/08/12 04:14:50;;;;;;;6.25;3.87;;;;;;;;;;4223045;33;20125;-62
2022/08/12 04:17:16;;;;;;;8.50;5.10;;;;;;;;;;4233700;33;20121;-61
2022/08/12 04:19:42;;;;;;;6.80;4.20;;;;;;;;;;4220984;33;20541;-62
2022/08/12 04:22:11;;;;;;;5.03;2.97;;;;;;;;;;4220760;33;20201;-61
2022/08/12 04:24:38;;;;;;;11.40;7.80;;;;;;;;;;4221911;33;20116;-61
2022/08/12 04:27:07;;;;;;;5.68;3.95;;;;;;;;;;4217866;34;20524;-62
2022/08/12 04:29:34;;;;;;;8.73;4.80;;;;;;;;;;4218805;33;20109;-61
2022/08/12 04:32:00;;;;;;;15.13;3.80;;;;;;;;;;4219632;34;20101;-61
2022/08/12 04:34:27;;;;;;;13.27;3.65;;;;;;;;;;4219607;33;20120;-62
2022/08/12 04:36:53;;;;;;;7.85;4.43;;;;;;;;;;4222156;33;20173;-62
2022/08/12 04:39:20;;;;;;;10.90;3.90;;;;;;;;;;4233658;33;20445;-62
2022/08/12 04:41:48;;;;;;;8.13;3.80;;;;;;;;;;4220599;33;20472;-62
2022/08/12 04:44:15;;;;;;;6.93;3.08;;;;;;;;;;4220637;33;20104;-61
2022/08/12 04:46:41;;;;;;;10.25;4.15;;;;;;;;;;4233128;33;20113;-62
2022/08/12 04:49:07;;;;;;;8.73;3.62;;;;;;;;;;4232514;33;20208;-60
2022/08/12 04:51:34;;;;;;;9.35;3.55;;;;;;;;;;4227759;33;20129;-62
2022/08/12 04:54:01;;;;;;;9.05;3.28;;;;;;;;;;4219276;33;20613;-62
2022/08/12 04:56:28;;;;;;;11.65;3.60;;;;;;;;;;4219213;34;20109;-61
2022/08/12 04:58:58;;;;;;;12.35;3.33;;;;;;;;;;4222899;33;20105;-61
2022/08/12 05:01:29;;;;;;;14.25;3.60;;;;;;;;;;4233115;33;20108;-62
2022/08/12 05:03:56;;;;;;;10.90;3.85;;;;;;;;;;4233455;33;20123;-61
2022/08/12 05:06:24;;;;;;;9.18;4.43;;;;;;;;;;4233181;33;20128;-62
2022/08/12 05:08:53;;;;;;;7.78;4.15;;;;;;;;;;4233333;33;20189;-61
2022/08/12 05:11:23;;;;;;;22.52;6.72;;;;;;;;;;4220365;33;20457;-61
2022/08/12 05:13:54;;;;;;;20.62;6.28;;;;;;;;;;4233120;33;20465;-62
2022/08/12 05:16:20;;;;;;;20.60;7.62;;;;;;;;;;4220325;33;20148;-62
2022/08/12 05:18:46;;;;;;;15.93;8.07;;;;;;;;;;4232167;33;20235;-61
2022/08/12 05:21:12;;;;;;;16.58;7.32;;;;;;;;;;4220876;33;20104;-61
2022/08/12 05:23:39;;;;;;;26.75;7.47;;;;;;;;;;4226471;33;20541;-60
2022/08/12 05:26:05;;;;;;;30.02;7.15;;;;;;;;;;4233110;33;20124;-61
2022/08/12 05:28:31;;;;;;;16.42;5.65;;;;;;;;;;4218397;33;20828;-63
2022/08/12 05:31:00;;;;;;;15.32;5.82;;;;;;;;;;4232990;33;20120;-61
2022/08/12 05:33:34;;;;;;;13.43;3.65;;;;;;;;;;4232741;33;20135;-62
2022/08/12 05:36:00;;;;;;;12.68;4.15;;;;;;;;;;4229912;33;20101;-62
2022/08/12 05:41:20;;;;;;;3.53;2.20;;;;;;;;;;4232273;33;20557;-62
2022/08/12 05:43:50;;;;;;;3.42;2.20;;;;;;;;;;4219849;33;20116;-61
2022/08/12 05:46:17;;;;;;;4.68;2.80;;;;;;;;;;4232910;33;20216;-62
2022/08/12 05:48:43;;;;;;;8.90;2.65;;;;;;;;;;4232881;33;20560;-61
2022/08/12 05:51:10;;;;;;;3.75;2.28;;;;;;;;;;4232890;33;20112;-61
2022/08/12 05:53:40;;;;;;;9.70;2.20;;;;;;;;;;4219885;33;20106;-61
2022/08/12 05:56:06;;;;;;;5.68;2.58;;;;;;;;;;4232898;33;20124;-61
2022/08/12 05:58:33;;;;;;;6.62;2.55;;;;;;;;;;4219703;33;20233;-59
2022/08/12 06:01:00;;;;;;;3.60;2.15;;;;;;;;;;4232770;33;20106;-59
2022/08/12 06:03:26;;;;;;;9.38;2.42;;;;;;;;;;4233078;33;20105;-60
2022/08/12 06:05:52;;;;;;;3.70;2.37;;;;;;;;;;4232402;33;20196;-60
2022/08/12 06:08:18;;;;;;;2.85;2.03;;;;;;;;;;4233050;33;20128;-60
2022/08/12 06:10:48;;;;;;;6.03;2.65;;;;;;;;;;4232851;33;20448;-60
2022/08/12 06:13:14;;;;;;;4.00;2.45;;;;;;;;;;4232748;33;20113;-59
2022/08/12 06:15:40;;;;;;;3.08;2.22;;;;;;;;;;4232686;33;20117;-60
2022/08/12 06:18:11;;;;;;;6.90;2.70;;;;;;;;;;4219614;33;20545;-61
2022/08/12 06:20:39;;;;;;;5.70;2.60;;;;;;;;;;4232794;33;20136;-60
2022/08/12 06:23:05;;;;;;;9.13;2.97;;;;;;;;;;4232776;33;20135;-63
2022/08/12 06:25:33;;;;;;;3.45;2.45;;;;;;;;;;4219645;33;20472;-60
2022/08/12 06:28:01;;;;;;;2.62;2.00;;;;;;;;;;4219479;33;20120;-61
2022/08/12 06:30:28;;;;;;;7.25;2.67;;;;;;;;;;4232682;33;20453;-61
2022/08/12 06:32:55;;;;;;;13.23;2.95;;;;;;;;;;4232652;33;20113;-62
2022/08/12 06:35:21;;;;;;;9.45;3.25;;;;;;;;;;4232467;33;20185;-61
2022/08/12 06:37:51;;;;;;;5.03;2.60;;;;;;;;;;4219407;33;20096;-63
2022/08/12 06:42:46;;;;;;;7.30;3.05;;;;;;;;;;4219388;33;20093;-65
2022/08/12 06:43:04;;;;;;;4.78;2.80;;;;;;;;;;4232031;33;20431;-62
2022/08/12 06:45:31;;;;;;;4.62;3.65;;;;;;;;;;4232434;33;20093;-63
2022/08/12 06:47:59;;;;;;;4.65;3.28;;;;;;;;;;4232423;33;20128;-61
2022/08/12 06:50:29;;;;;;;6.40;3.47;;;;;;;;;;4232145;33;20500;-61
2022/08/12 06:52:55;;;;;;;5.07;2.92;;;;;;;;;;4232558;33;20124;-61
2022/08/12 06:55:21;;;;;;;4.62;2.97;;;;;;;;;;4232279;33;20196;-61
2022/08/12 06:57:55;;;;;;;6.43;2.85;;;;;;;;;;4232313;33;20977;-61
2022/08/12 07:00:22;;;;;;;5.20;2.40;;;;;;;;;;4232326;33;20096;-61
2022/08/12 07:02:49;;;;;;;4.22;2.53;;;;;;;;;;4232350;33;20125;-61
2022/08/12 07:05:20;;;;;;;3.25;2.47;;;;;;;;;;4219202;33;20191;-61
2022/08/12 07:07:46;;;;;;;3.28;2.22;;;;;;;;;;4232271;33;20105;-62
2022/08/12 07:10:12;;;;;;;5.53;2.53;;;;;;;;;;4232337;33;20184;-62
2022/08/12 07:12:38;;;;;;;3.28;2.05;;;;;;;;;;4232198;33;20105;-61
2022/08/12 07:15:05;;;;;;;3.00;2.53;;;;;;;;;;4232047;33;20480;-61
2022/08/12 07:17:35;;;;;;;2.67;1.95;;;;;;;;;;4232077;33;20475;-62
2022/08/12 07:20:04;;;;;;;4.50;2.25;;;;;;;;;;4232337;33;20093;-61
2022/08/12 07:22:30;;;;;;;6.80;2.20;;;;;;;;;;4232171;33;20121;-61
2022/08/12 07:27:54;;;;;;;2.85;1.85;;;;;;;;;;4193599;33;20193;-62
2022/08/12 07:30:21;;;;;;;3.10;2.10;;;;;;;;;;4231490;33;20536;-62
2022/08/12 07:32:50;;;;;;;5.43;3.10;;;;;;;;;;4232267;33;20099;-63
2022/08/12 07:35:18;;;;;;;2.70;2.20;;;;;;;;;;4219156;33;20117;-62
2022/08/12 07:37:44;;;;;;;8.10;2.53;;;;;;;;;;4218895;33;20108;-60
2022/08/12 07:40:11;;;;;;;3.90;2.30;;;;;;;;;;4231847;33;20201;-62
2022/08/12 07:42:38;;;;;;;3.12;2.42;;;;;;;;;;4231951;33;20509;-62
2022/08/12 07:45:06;;;;;;;3.97;2.20;;;;;;;;;;4231698;33;20500;-62
2022/08/12 07:47:35;;;;;;;3.75;2.25;;;;;;;;;;4231874;33;20453;-61
2022/08/12 07:50:01;;;;;;;4.05;2.70;;;;;;;;;;4231869;33;20136;-63
2022/08/12 07:52:28;;;;;;;2.40;2.00;;;;;;;;;;4232065;33;20111;-60
2022/08/12 07:54:54;;;;;;;9.10;2.33;;;;;;;;;;4231779;33;20121;-60
2022/08/12 07:57:20;;;;;;;3.87;2.17;;;;;;;;;;4231971;33;20477;-64
2022/08/12 07:59:47;;;;;;;2.83;2.10;;;;;;;;;;4231625;33;20139;-61
2022/08/12 08:02:13;;;;;;;5.65;1.98;;;;;;;;;;4231306;33;20112;-61
2022/08/12 08:04:59;;;;;;;2.35;2.08;;;;;;;;;;4227966;33;20129;-59
2022/08/12 08:07:28;;;;;;;3.03;2.00;;;;;;;;;;4227224;33;20119;-58
2022/08/12 08:09:58;;;;;;;2.55;2.17;;;;;;;;;;4227491;33;20120;-59
2022/08/12 08:15:10;;;;;;;2.95;1.80;;;;;;;;;;4227219;33;20124;-58
2022/08/12 08:17:37;;;;;;;11.68;3.42;;;;;;;;;;4227009;33;20189;-58
2022/08/12 08:20:09;;;;;;;8.35;2.53;;;;;;;;;;4229048;33;20130;-59
2022/08/12 08:22:37;;;;;;;6.62;2.03;;;;;;;;;;4216439;33;20136;-60
2022/08/12 08:25:05;;;;;;;2.87;2.30;;;;;;;;;;4228038;33;20139;-60
2022/08/12 08:27:45;;;;;;;2.30;1.60;;;;;;;;;;4227264;33;20124;-59
2022/08/12 08:30:12;;;;;;;2.70;2.12;;;;;;;;;;4216221;33;20106;-58
2022/08/12 08:32:41;;;;;;;3.28;1.90;;;;;;;;;;4232345;33;20125;-61
2022/08/12 08:35:10;;;;;;;2.40;1.87;;;;;;;;;;4220563;33;20104;-61
2022/08/12 08:37:36;;;;;;;5.00;2.22;;;;;;;;;;4220431;33;20167;-61
2022/08/12 08:42:50;;;;;;;5.30;2.05;;;;;;;;;;4233424;33;20569;-60
2022/08/12 08:45:17;;;;;;;2.40;2.15;;;;;;;;;;4233549;33;20144;-60
2022/08/12 08:47:47;;;;;;;2.87;2.30;;;;;;;;;;4220483;33;20101;-61
2022/08/12 08:50:14;;;;;;;3.42;2.28;;;;;;;;;;4233550;33;20127;-61
2022/08/12 08:52:43;;;;;;;6.43;2.25;;;;;;;;;;4233521;33;20179;-62
2022/08/12 08:55:12;;;;;;;5.50;1.87;;;;;;;;;;4220380;33;20120;-62
2022/08/12 08:57:42;;;;;;;3.53;2.12;;;;;;;;;;4233408;33;20105;-62
2022/08/12 09:00:16;;;;;;;2.47;1.67;;;;;;;;;;4220142;33;20145;-59
2022/08/12 09:02:43;;;;;;;4.80;2.47;;;;;;;;;;4232231;33;20101;-61
2022/08/12 09:05:10;;;;;;;1.98;1.80;;;;;;;;;;4233086;33;20464;-61
2022/08/12 09:07:47;;;;;;;10.35;2.25;;;;;;;;;;4233378;33;20112;-61
2022/08/12 09:10:18;;;;;;;8.63;2.28;;;;;;;;;;4233125;33;20096;-61
2022/08/12 09:15:31;;;;;;;2.37;2.10;;;;;;;;;;4232034;33;20200;-62
2022/08/12 09:17:58;;;;;;;3.20;2.17;;;;;;;;;;4220136;33;20117;-60
2022/08/12 09:20:34;;;;;;;2.30;1.83;;;;;;;;;;4233043;33;20180;-60
2022/08/12 09:23:04;;;;;;;7.82;2.10;;;;;;;;;;4233313;33;20092;-64
2022/08/12 09:25:30;;;;;;;3.78;2.15;;;;;;;;;;4233157;33;20117;-62
2022/08/12 09:28:03;;;;;;;2.42;1.90;;;;;;;;;;4233175;33;20513;-62
2022/08/12 09:30:29;;;;;;;2.55;1.70;;;;;;;;;;4233085;33;20129;-59
2022/08/12 09:32:56;;;;;;;2.72;2.22;;;;;;;;;;4233280;33;20109;-60
2022/08/12 09:35:23;;;;;;;2.42;1.80;;;;;;;;;;4232955;33;20128;-61
2022/08/12 09:37:54;;;;;;;2.30;2.10;;;;;;;;;;4233087;33;20112;-60
2022/08/12 09:40:21;;;;;;;2.33;1.92;;;;;;;;;;4232071;33;20129;-60
2022/08/12 09:45:33;;;;;;;2.42;1.83;;;;;;;;;;4233030;33;20132;-59
2022/08/12 09:48:07;;;;;;;5.90;2.37;;;;;;;;;;4233028;33;20112;-58
2022/08/12 09:50:34;;;;;;;4.70;2.10;;;;;;;;;;4232953;33;20117;-60
2022/08/12 09:53:03;;;;;;;2.75;2.42;;;;;;;;;;4232921;33;20101;-59
2022/08/12 09:55:31;;;;;;;3.55;2.08;;;;;;;;;;4232750;33;20137;-59
2022/08/12 09:57:57;;;;;;;2.87;1.85;;;;;;;;;;4232740;33;20125;-60
2022/08/12 10:00:25;;;;;;;3.85;2.12;;;;;;;;;;4219640;33;20124;-60
2022/08/12 10:02:59;;;;;;;2.75;1.95;;;;;;;;;;4232825;33;20109;-61
2022/08/12 10:05:26;;;;;;;6.18;2.10;;;;;;;;;;4232832;33;20132;-60
2022/08/12 10:07:52;;;;;;;2.65;2.28;;;;;;;;;;4233058;33;20208;-60
2022/08/12 10:10:18;;;;;;;3.45;2.05;;;;;;;;;;4232889;33;20113;-60
2022/08/12 10:15:30;;;;;;;2.85;1.83;;;;;;;;;;4233032;33;20197;-61
2022/08/12 10:17:56;;;;;;;3.78;1.80;;;;;;;;;;4232853;33;20203;-61
2022/08/12 10:20:22;;;;;;;3.17;2.33;;;;;;;;;;4232590;33;20120;-60
2022/08/12 10:23:00;;;;;;;8.25;2.00;;;;;;;;;;4232743;33;20117;-61
2022/08/12 10:30:56;;;;;;;7.35;2.12;;;;;;;;;;4232720;33;20620;-62
2022/08/12 10:33:23;;;;;;;2.40;1.92;;;;;;;;;;4232534;33;20549;-61
2022/08/12 10:35:49;;;;;;;3.40;2.03;;;;;;;;;;4232503;33;20198;-61
2022/08/12 10:38:16;;;;;;;4.07;2.20;;;;;;;;;;4232563;33;20097;-60
2022/08/12 10:43:42;;;;;;;3.47;2.00;;;;;;;;;;4221665;33;20120;-61
2022/08/12 10:46:15;;;;;;;2.45;1.83;;;;;;;;;;4232388;33;20208;-59
2022/08/12 10:48:42;;;;;;;4.28;2.30;;;;;;;;;;4232513;33;20127;-61
2022/08/12 10:51:10;;;;;;;3.53;2.28;;;;;;;;;;4232137;33;20086;-61
2022/08/12 10:53:36;;;;;;;8.48;2.17;;;;;;;;;;4232321;33;20140;-60
2022/08/12 10:56:03;;;;;;;2.40;1.92;;;;;;;;;;4232177;33;20116;-62
2022/08/12 10:58:29;;;;;;;2.53;1.95;;;;;;;;;;4232404;33;20143;-61
2022/08/12 11:00:55;;;;;;;5.68;1.75;;;;;;;;;;4232246;33;20094;-60
2022/08/12 11:03:21;;;;;;;3.78;2.05;;;;;;;;;;4232240;33;20180;-61
2022/08/12 11:05:47;;;;;;;2.45;1.70;;;;;;;;;;4232206;33;20108;-60
2022/08/12 11:08:13;;;;;;;3.40;2.08;;;;;;;;;;4232068;33;20122;-61
2022/08/12 11:10:39;;;;;;;2.78;2.00;;;;;;;;;;4232159;33;20171;-61
2022/08/12 11:13:05;;;;;;;4.22;1.95;;;;;;;;;;4232149;33;20097;-60
2022/08/12 11:15:32;;;;;;;6.15;1.70;;;;;;;;;;4232048;33;20536;-61
2022/08/12 11:17:58;;;;;;;2.17;1.92;;;;;;;;;;4218976;33;20548;-61
2022/08/12 11:20:25;;;;;;;1.60;1.50;;;;;;;;;;4232206;33;20125;-61
2022/08/12 11:23:03;;;;;;;2.03;1.60;;;;;;;;;;4232087;33;20139;-61
2022/08/12 11:25:29;;;;;;;4.53;2.40;;;;;;;;;;4231941;33;20220;-61
2022/08/12 11:27:55;;;;;;;1.83;1.70;;;;;;;;;;4232006;33;20112;-60
2022/08/12 11:30:21;;;;;;;1.90;1.50;;;;;;;;;;4231839;33;20113;-61
2022/08/12 11:32:47;;;;;;;1.30;1.20;;;;;;;;;;4232048;33;20133;-61
2022/08/12 11:35:13;;;;;;;2.17;1.83;;;;;;;;;;4231827;33;20682;-60
2022/08/12 11:37:39;;;;;;;1.62;1.27;;;;;;;;;;4231806;33;20211;-60
2022/08/12 11:40:06;;;;;;;7.37;1.87;;;;;;;;;;4231747;33;20196;-59
2022/08/12 11:42:34;;;;;;;2.30;1.62;;;;;;;;;;4231971;33;20124;-62
2022/08/12 11:45:00;;;;;;;1.62;1.52;;;;;;;;;;4231827;33;20208;-61
2022/08/12 11:47:26;;;;;;;2.17;1.65;;;;;;;;;;4232154;33;20124;-61
2022/08/12 11:49:52;;;;;;;1.00;1.00;;;;;;;;;;4231938;33;20128;-60
2022/08/12 11:52:18;;;;;;;1.52;1.42;;;;;;;;;;4231724;33;20093;-63
2022/08/12 11:54:44;;;;;;;1.42;1.33;;;;;;;;;;4231721;33;20456;-61
2022/08/12 11:57:10;;;;;;;1.52;1.23;;;;;;;;;;4218568;33;20203;-59
2022/08/12 11:59:36;;;;;;;3.12;1.92;;;;;;;;;;4231825;33;20204;-60
2022/08/12 12:02:02;;;;;;;3.33;1.80;;;;;;;;;;4231915;33;20117;-59
2022/08/12 12:04:28;;;;;;;2.78;1.05;;;;;;;;;;4233259;33;20461;-60
2022/08/12 12:06:54;;;;;;;3.22;1.80;;;;;;;;;;4233827;33;20200;-60
2022/08/12 12:09:20;;;;;;;2.30;1.70;;;;;;;;;;4234064;33;20114;-59
2022/08/12 12:11:46;;;;;;;1.48;1.37;;;;;;;;;;4221067;33;20105;-61
2022/08/12 12:14:12;;;;;;;6.43;1.87;;;;;;;;;;4233700;33;20139;-59
2022/08/12 12:16:38;;;;;;;1.83;1.70;;;;;;;;;;4233989;33;20113;-61
2022/08/12 12:19:04;;;;;;;0.93;0.93;;;;;;;;;;4233829;33;20093;-61
2022/08/12 12:21:30;;;;;;;4.90;1.65;;;;;;;;;;4233649;33;20109;-61
2022/08/12 12:23:56;;;;;;;6.93;2.05;;;;;;;;;;4233701;33;20120;-59
2022/08/12 12:26:22;;;;;;;9.32;1.08;;;;;;;;;;4220364;33;20449;-59
2022/08/12 12:28:48;;;;;;;3.83;2.15;;;;;;;;;;4233728;33;20129;-60
2022/08/12 12:31:14;;;;;;;4.37;2.05;;;;;;;;;;4233579;33;20117;-60
2022/08/12 12:33:40;;;;;;;3.62;1.80;;;;;;;;;;4233502;33;20111;-61
2022/08/12 12:36:07;;;;;;;1.85;1.48;;;;;;;;;;4233469;33;20116;-59
2022/08/12 12:38:33;;;;;;;3.78;2.10;;;;;;;;;;4233486;33;20107;-64
2022/08/12 12:40:59;;;;;;;4.03;2.25;;;;;;;;;;4233479;33;20192;-62
2022/08/12 12:43:25;;;;;;;7.18;2.28;;;;;;;;;;4233607;33;20103;-63
2022/08/12 12:45:51;;;;;;;3.15;2.05;;;;;;;;;;4233494;33;20097;-62
2022/08/12 12:48:19;;;;;;;4.03;1.85;;;;;;;;;;4233479;33;20125;-62
2022/08/12 12:53:48;;;;;;;1.30;1.20;;;;;;;;;;4233394;33;20124;-63
2022/08/12 12:56:22;;;;;;;1.35;1.25;;;;;;;;;;4220438;33;20561;-61
2022/08/12 12:58:53;;;;;;;2.25;1.52;;;;;;;;;;4233524;33;20552;-63
2022/08/12 13:01:24;;;;;;;1.00;1.00;;;;;;;;;;4233234;33;20105;-61
2022/08/12 13:03:55;;;;;;;5.80;1.85;;;;;;;;;;4233354;33;20119;-63
2022/08/12 13:06:28;;;;;;;2.00;1.77;;;;;;;;;;4233324;33;20227;-64
2022/08/12 13:08:58;;;;;;;5.60;2.03;;;;;;;;;;4233377;33;20129;-64
2022/08/12 13:11:24;;;;;;;2.42;1.48;;;;;;;;;;4220381;33;20110;-62
2022/08/12 13:13:54;;;;;;;1.73;1.45;;;;;;;;;;4233225;33;20128;-63
2022/08/12 13:16:20;;;;;;;8.15;2.20;;;;;;;;;;4233138;33;20148;-60
2022/08/12 13:18:50;;;;;;;2.35;1.92;;;;;;;;;;4233147;33;20109;-62
2022/08/12 13:21:17;;;;;;;3.05;2.22;;;;;;;;;;4233096;33;20510;-61
2022/08/12 13:23:44;;;;;;;3.03;1.70;;;;;;;;;;4233243;33;20199;-63
2022/08/12 13:26:11;;;;;;;8.23;2.22;;;;;;;;;;4232956;33;20180;-62
2022/08/12 13:28:41;;;;;;;5.47;2.28;;;;;;;;;;4233387;33;20220;-63
2022/08/12 13:31:07;;;;;;;3.35;2.03;;;;;;;;;;4232981;33;20112;-63
2022/08/12 13:33:33;;;;;;;3.40;2.00;;;;;;;;;;4232959;33;20543;-61
2022/08/12 13:36:00;;;;;;;7.07;2.17;;;;;;;;;;4232988;33;20109;-63
2022/08/12 13:38:34;;;;;;;3.17;1.85;;;;;;;;;;4219730;33;20097;-64
2022/08/12 13:41:02;;;;;;;6.23;2.07;;;;;;;;;;4233032;33;20120;-61
2022/08/12 13:43:28;;;;;;;2.17;1.98;;;;;;;;;;4233055;33;20184;-63
2022/08/12 13:45:54;;;;;;;6.90;1.95;;;;;;;;;;4232966;33;20445;-62
2022/08/12 13:48:20;;;;;;;3.97;2.53;;;;;;;;;;4219864;33;20540;-64
2022/08/12 13:50:46;;;;;;;4.72;2.60;;;;;;;;;;4219648;33;20129;-62
2022/08/12 13:53:13;;;;;;;10.70;2.70;;;;;;;;;;4232815;33;20101;-62
2022/08/12 13:55:44;;;;;;;5.65;3.08;;;;;;;;;;4231901;33;20184;-62
2022/08/12 13:58:24;;;;;;;5.57;2.47;;;;;;;;;;4232825;33;20128;-65
2022/08/12 14:00:51;;;;;;;3.05;2.37;;;;;;;;;;4232939;33;20121;-66
2022/08/12 14:03:18;;;;;;;2.72;1.90;;;;;;;;;;4219899;33;20625;-65
2022/08/12 14:05:44;;;;;;;4.00;2.25;;;;;;;;;;4231698;33;20429;-61
2022/08/12 14:08:13;;;;;;;6.25;2.97;;;;;;;;;;4231250;33;20430;-61
2022/08/12 14:10:52;;;;;;;5.53;2.35;;;;;;;;;;4232767;33;20108;-59
2022/08/12 14:13:25;;;;;;;5.68;2.03;;;;;;;;;;4231373;33;20173;-58
2022/08/12 14:15:59;;;;;;;12.77;2.53;;;;;;;;;;4232671;33;20103;-60
2022/08/12 14:18:33;;;;;;;14.32;2.62;;;;;;;;;;4232917;33;20529;-59
2022/08/12 14:21:00;;;;;;;3.80;2.47;;;;;;;;;;4232574;33;20454;-59
2022/08/12 14:23:28;;;;;;;5.75;2.60;;;;;;;;;;4232710;33;20116;-59
2022/08/12 14:25:58;;;;;;;6.37;2.80;;;;;;;;;;4231946;33;20184;-58
2022/08/12 14:28:30;;;;;;;10.85;2.47;;;;;;;;;;4232485;33;20113;-59
2022/08/12 14:31:01;;;;;;;4.12;2.50;;;;;;;;;;4231070;33;20187;-63
2022/08/12 14:33:34;;;;;;;8.85;2.60;;;;;;;;;;4231699;33;20124;-61
2022/08/12 14:36:03;;;;;;;4.40;2.33;;;;;;;;;;4230577;33;20212;-60
2022/08/12 14:38:32;;;;;;;4.55;2.15;;;;;;;;;;4230380;33;20140;-61
2022/08/12 14:41:01;;;;;;;3.60;2.50;;;;;;;;;;4230576;33;20128;-62
2022/08/12 14:43:32;;;;;;;7.07;3.00;;;;;;;;;;4231102;33;20120;-62
2022/08/12 14:46:01;;;;;;;7.60;3.05;;;;;;;;;;4230960;33;20216;-59
2022/08/12 14:48:28;;;;;;;15.88;3.60;;;;;;;;;;4206326;33;20133;-60
2022/08/12 14:50:55;;;;;;;12.18;3.80;;;;;;;;;;4232301;33;20113;-60
2022/08/12 14:53:22;;;;;;;10.73;3.10;;;;;;;;;;4230816;33;20477;-60
2022/08/12 14:55:48;;;;;;;12.00;3.33;;;;;;;;;;4232389;33;20105;-61
2022/08/12 14:58:18;;;;;;;10.13;3.33;;;;;;;;;;4232244;33;20129;-60
2022/08/12 15:03:30;;;;;;;15.68;5.20;;;;;;;;;;4232352;33;20223;-61
2022/08/12 15:05:58;;;;;;;14.35;4.35;;;;;;;;;;4232291;33;20101;-60
2022/08/12 15:08:27;;;;;;;21.37;4.85;;;;;;;;;;4218982;33;20529;-60
2022/08/12 15:10:53;;;;;;;9.05;4.43;;;;;;;;;;4232234;33;20120;-61
2022/08/12 15:13:22;;;;;;;12.63;4.60;;;;;;;;;;4232138;33;20096;-61
2022/08/12 15:15:48;;;;;;;20.62;5.65;;;;;;;;;;4232199;33;20113;-61
2022/08/12 15:18:17;;;;;;;13.75;4.72;;;;;;;;;;4232028;33;20117;-60
2022/08/12 15:20:43;;;;;;;19.17;4.80;;;;;;;;;;4232132;33;20128;-60
2022/08/12 15:23:09;;;;;;;26.83;5.37;;;;;;;;;;4218830;33;20124;-61
2022/08/12 15:25:37;;;;;;;24.67;4.80;;;;;;;;;;4231987;33;20095;-60
2022/08/12 15:28:06;;;;;;;15.50;4.55;;;;;;;;;;4232067;33;20129;-62
2022/08/12 15:30:34;;;;;;;26.70;6.22;;;;;;;;;;4219014;33;20093;-61
2022/08/12 15:33:02;;;;;;;21.62;5.95;;;;;;;;;;4232067;33;20536;-62
2022/08/12 15:35:28;;;;;;;27.25;7.05;;;;;;;;;;4231849;33;20204;-62
2022/08/12 15:38:05;;;;;;;39.85;11.32;;;;;;;;;;4231895;33;20580;-61
2022/08/12 15:40:35;;;;;;;28.45;8.93;;;;;;;;;;4233988;33;20211;-61
2022/08/12 15:43:03;;;;;;;30.90;7.45;;;;;;;;;;4234065;33;20180;-61
2022/08/12 15:45:30;;;;;;;25.58;7.82;;;;;;;;;;4233979;33;20104;-62
2022/08/12 15:47:57;;;;;;;27.48;6.90;;;;;;;;;;4221220;33;20120;-61
2022/08/12 15:50:24;;;;;;;21.35;6.07;;;;;;;;;;4233918;33;20113;-62
2022/08/12 15:52:52;;;;;;;18.60;6.78;;;;;;;;;;4233893;33;20128;-62
2022/08/12 15:55:19;;;;;;;17.23;7.45;;;;;;;;;;4234258;33;20128;-62
2022/08/12 15:57:52;;;;;;;13.65;6.87;;;;;;;;;;4220906;33;20140;-61
2022/08/12 16:00:39;;;;;;;19.62;6.85;;;;;;;;;;4221792;33;20101;-62
2022/08/12 16:03:08;;;;;;;22.02;7.20;;;;;;;;;;4233894;33;20209;-61
2022/08/12 16:05:39;;;;;;;22.13;7.97;;;;;;;;;;4233873;33;20195;-61
2022/08/12 16:08:07;;;;;;;26.12;7.78;;;;;;;;;;4220946;33;20129;-62
2022/08/12 16:10:33;;;;;;;18.10;8.05;;;;;;;;;;4233803;33;20090;-61
2022/08/12 16:13:04;;;;;;;18.62;9.75;;;;;;;;;;4233852;33;20445;-62
2022/08/12 16:15:33;;;;;;;27.37;10.60;;;;;;;;;;4233736;33;20109;-61
2022/08/12 16:18:00;;;;;;;26.35;9.80;;;;;;;;;;4233688;33;20094;-62
2022/08/12 16:20:26;;;;;;;19.92;8.75;;;;;;;;;;4220693;33;20284;-61
2022/08/12 16:22:57;;;;;;;21.00;9.00;;;;;;;;;;4233613;33;20530;-62
2022/08/12 16:25:24;;;;;;;32.92;13.77;;;;;;;;;;4220746;33;20237;-61
2022/08/12 16:27:50;;;;;;;18.40;6.32;;;;;;;;;;4233630;33;20501;-62
2022/08/12 16:30:21;;;;;;;22.13;9.20;;;;;;;;;;4233584;33;20520;-62
2022/08/12 16:32:48;;;;;;;28.65;9.45;;;;;;;;;;4233988;33;20115;-61
2022/08/12 16:35:15;;;;;;;25.25;9.25;;;;;;;;;;4220431;33;20089;-61
2022/08/12 16:37:42;;;;;;;19.23;7.60;;;;;;;;;;4233536;33;20136;-63
2022/08/12 16:40:08;;;;;;;13.13;6.62;;;;;;;;;;4233597;33;20101;-61
2022/08/12 16:42:38;;;;;;;12.10;7.43;;;;;;;;;;4233729;33;20124;-61
2022/08/12 16:45:08;;;;;;;21.90;7.53;;;;;;;;;;4233528;33;20113;-62